GDJDT VNLT-VNLK
Flight info
| Callsign | GDJDT |
|---|---|
| Flight time | 0h 37m |
| Altitude | 19500 |
| Route | DCT |
| Aircraft | C208/L-G/L |
Departure
| Time | 2025-12-19 11:22 |
|---|---|
| Airport | Langtang Airport (VNLT) |
Arrival
| Time | 2025-12-19 12:00 |
|---|---|
| Airport | Tenzing-Hillary Airport (VNLK) |
| Time | Latitude | Longitude | Altitude | Speed | Heading |
|---|---|---|---|---|---|
| 2025-12-19 11:19 | 28.20046 | 85.58508 | 12352 ft | 0 kts | 210° |
| 2025-12-19 11:19 | 28.19869 | 85.58747 | 12377 ft | 17 kts | 163° |
| 2025-12-19 11:20 | 28.19878 | 85.58718 | 12372 ft | 0 kts | 290° |
| 2025-12-19 11:21 | 28.19897 | 85.58671 | 12367 ft | 32 kts | 296° |
| 2025-12-19 11:21 | 28.20407 | 85.57508 | 12747 ft | 104 kts | 288° |
| 2025-12-19 11:22 | 28.20583 | 85.55893 | 13689 ft | 107 kts | 278° |
| 2025-12-19 11:22 | 28.20730 | 85.54121 | 14305 ft | 119 kts | 276° |
| 2025-12-19 11:23 | 28.20907 | 85.52181 | 15035 ft | 129 kts | 277° |
| 2025-12-19 11:23 | 28.20994 | 85.51156 | 15393 ft | 132 kts | 276° |
| 2025-12-19 11:23 | 28.21135 | 85.49043 | 16117 ft | 137 kts | 265° |
| 2025-12-19 11:24 | 28.19787 | 85.46242 | 17216 ft | 141 kts | 229° |
| 2025-12-19 11:25 | 28.18396 | 85.44653 | 17972 ft | 145 kts | 229° |
| 2025-12-19 11:25 | 28.16960 | 85.43052 | 18681 ft | 141 kts | 229° |
| 2025-12-19 11:26 | 28.15550 | 85.41555 | 19348 ft | 139 kts | 230° |
| 2025-12-19 11:26 | 28.13980 | 85.39929 | 19554 ft | 172 kts | 230° |
| 2025-12-19 11:27 | 28.11744 | 85.38621 | 19548 ft | 206 kts | 180° |
| 2025-12-19 11:27 | 28.09421 | 85.40558 | 19550 ft | 220 kts | 126° |
| 2025-12-19 11:27 | 28.08524 | 85.41972 | 19544 ft | 222 kts | 126° |
| 2025-12-19 11:28 | 28.05880 | 85.46195 | 19537 ft | 217 kts | 126° |
| 2025-12-19 11:29 | 28.04124 | 85.48997 | 19533 ft | 219 kts | 126° |
| 2025-12-19 11:29 | 28.03230 | 85.50422 | 19535 ft | 219 kts | 126° |
| 2025-12-19 11:30 | 28.01468 | 85.53223 | 19533 ft | 217 kts | 125° |
| 2025-12-19 11:30 | 27.99732 | 85.55966 | 19534 ft | 220 kts | 126° |
| 2025-12-19 11:30 | 27.98828 | 85.57401 | 19536 ft | 221 kts | 126° |
| 2025-12-19 11:31 | 27.97056 | 85.60219 | 19530 ft | 222 kts | 126° |
| 2025-12-19 11:31 | 27.95283 | 85.63071 | 19524 ft | 221 kts | 126° |
| 2025-12-19 11:32 | 27.92583 | 85.67388 | 19521 ft | 224 kts | 126° |
| 2025-12-19 11:33 | 27.90779 | 85.70248 | 19524 ft | 224 kts | 126° |
| 2025-12-19 11:33 | 27.89030 | 85.73058 | 19521 ft | 217 kts | 125° |
| 2025-12-19 11:34 | 27.87271 | 85.75860 | 19523 ft | 220 kts | 126° |
| 2025-12-19 11:34 | 27.85479 | 85.78695 | 19531 ft | 222 kts | 126° |
| 2025-12-19 11:34 | 27.84585 | 85.80112 | 19534 ft | 222 kts | 126° |
| 2025-12-19 11:35 | 27.82790 | 85.82963 | 19532 ft | 223 kts | 126° |
| 2025-12-19 11:35 | 27.81009 | 85.85801 | 19532 ft | 222 kts | 125° |
| 2025-12-19 11:36 | 27.78546 | 85.90240 | 19529 ft | 223 kts | 116° |
| 2025-12-19 11:37 | 27.77117 | 85.93355 | 19539 ft | 223 kts | 116° |
| 2025-12-19 11:37 | 27.75695 | 85.96473 | 19539 ft | 223 kts | 116° |
| 2025-12-19 11:38 | 27.74275 | 85.99590 | 19543 ft | 223 kts | 117° |
| 2025-12-19 11:38 | 27.72855 | 86.02700 | 19532 ft | 223 kts | 116° |
| 2025-12-19 11:39 | 27.71473 | 86.05739 | 19534 ft | 215 kts | 116° |
| 2025-12-19 11:39 | 27.70785 | 86.07245 | 19534 ft | 217 kts | 116° |
| 2025-12-19 11:39 | 27.69395 | 86.10297 | 19539 ft | 219 kts | 116° |
| 2025-12-19 11:40 | 27.67297 | 86.14883 | 19546 ft | 221 kts | 116° |
| 2025-12-19 11:41 | 27.65879 | 86.17988 | 19547 ft | 223 kts | 116° |
| 2025-12-19 11:41 | 27.64468 | 86.21076 | 19541 ft | 218 kts | 116° |
| 2025-12-19 11:42 | 27.63082 | 86.24102 | 19540 ft | 219 kts | 116° |
| 2025-12-19 11:42 | 27.62383 | 86.25634 | 19544 ft | 220 kts | 116° |
| 2025-12-19 11:42 | 27.60982 | 86.28706 | 19543 ft | 220 kts | 116° |
| 2025-12-19 11:43 | 27.59654 | 86.31597 | 19505 ft | 191 kts | 116° |
| 2025-12-19 11:43 | 27.58450 | 86.34236 | 19103 ft | 186 kts | 117° |
| 2025-12-19 11:44 | 27.56744 | 86.38043 | 18549 ft | 177 kts | 116° |
| 2025-12-19 11:45 | 27.55636 | 86.40495 | 18166 ft | 176 kts | 116° |
| 2025-12-19 11:45 | 27.54530 | 86.42930 | 17763 ft | 174 kts | 116° |
| 2025-12-19 11:45 | 27.53984 | 86.44137 | 17558 ft | 174 kts | 116° |
| 2025-12-19 11:46 | 27.52871 | 86.46612 | 17184 ft | 181 kts | 116° |
| 2025-12-19 11:46 | 27.51744 | 86.49109 | 16771 ft | 174 kts | 116° |
| 2025-12-19 11:47 | 27.50671 | 86.51519 | 16388 ft | 172 kts | 116° |
| 2025-12-19 11:47 | 27.49619 | 86.53873 | 15990 ft | 167 kts | 116° |
| 2025-12-19 11:48 | 27.48017 | 86.57455 | 15436 ft | 173 kts | 116° |
| 2025-12-19 11:49 | 27.46932 | 86.59892 | 15077 ft | 177 kts | 116° |
| 2025-12-19 11:49 | 27.45848 | 86.62362 | 14716 ft | 176 kts | 116° |
| 2025-12-19 11:49 | 27.45307 | 86.63600 | 14527 ft | 176 kts | 116° |
| 2025-12-19 11:50 | 27.44133 | 86.67439 | 13976 ft | 174 kts | 94° |
| 2025-12-19 11:50 | 27.44004 | 86.68797 | 13787 ft | 174 kts | 94° |
| 2025-12-19 11:51 | 27.44696 | 86.71253 | 13388 ft | 171 kts | 50° |
| 2025-12-19 11:51 | 27.46267 | 86.73140 | 12980 ft | 160 kts | 22° |
| 2025-12-19 11:52 | 27.49236 | 86.72786 | 12383 ft | 151 kts | 318° |
| 2025-12-19 11:53 | 27.50799 | 86.71236 | 12001 ft | 150 kts | 317° |
| 2025-12-19 11:53 | 27.52559 | 86.70014 | 11610 ft | 150 kts | 345° |
| 2025-12-19 11:53 | 27.53589 | 86.69856 | 11423 ft | 149 kts | 350° |
| 2025-12-19 11:54 | 27.55660 | 86.69534 | 11122 ft | 151 kts | 351° |
| 2025-12-19 11:54 | 27.57772 | 86.69235 | 10713 ft | 156 kts | 359° |
| 2025-12-19 11:55 | 27.59862 | 86.69323 | 10583 ft | 141 kts | 1° |
| 2025-12-19 11:55 | 27.61754 | 86.69412 | 10586 ft | 134 kts | 6° |
| 2025-12-19 11:56 | 27.64546 | 86.70155 | 10600 ft | 140 kts | 12° |
| 2025-12-19 11:57 | 27.66328 | 86.70617 | 10384 ft | 132 kts | 11° |
| 2025-12-19 11:57 | 27.67754 | 86.71008 | 9776 ft | 90 kts | 25° |
| 2025-12-19 11:58 | 27.68155 | 86.71698 | 9433 ft | 102 kts | 79° |
| 2025-12-19 11:58 | 27.68464 | 86.72500 | 9158 ft | 79 kts | 57° |
| 2025-12-19 11:59 | 27.68605 | 86.72836 | 9246 ft | 3 kts | 4° |
| 2025-12-19 11:59 | 27.68682 | 86.72941 | 9313 ft | 21 kts | 58° |
| 2025-12-19 12:00 | 27.68749 | 86.73193 | 9411 ft | 0 kts | 242° |